Time;durP1;ratioP1;P1;durP2;ratioP2;P2;SDS_P1;SDS_P2;PMS_P1;PMS_P2;Temp;Humidity;BMP_temperature;BMP_pressure;BME280_temperature;BME280_humidity;BME280_pressure;Samples;Min_cycle;Max_cycle;Signal;HPM_P1;HPM_P2
2023/10/01 00:05:12;;;;;;;4.85;3.83;;;;;;;23.14;50.00;100856.31;41267693;28;20074;-82
2023/10/01 00:25:13;;;;;;;4.97;3.65;;;;;;;22.95;49.70;100839.28;41249942;28;20062;-82
2023/10/01 00:45:14;;;;;;;5.03;3.80;;;;;;;23.18;49.53;100874.50;41263506;28;20047;-83
2023/10/01 01:05:23;;;;;;;5.30;3.88;;;;;;;22.78;49.42;100811.53;41286079;28;20035;-82
2023/10/01 01:25:26;;;;;;;4.43;3.50;;;;;;;23.06;49.03;100872.78;41292941;28;20078;-83
2023/10/01 01:45:27;;;;;;;3.67;3.20;;;;;;;23.65;48.90;100985.34;41290938;28;20046;-81
2023/10/01 02:05:28;;;;;;;4.75;3.40;;;;;;;22.81;48.51;100856.19;41261853;28;20049;-83
2023/10/01 02:25:45;;;;;;;4.97;3.38;;;;;;;23.60;48.69;100994.63;41228369;28;1122450;-83
2023/10/01 02:45:50;;;;;;;4.28;3.33;;;;;;;23.57;48.08;100998.34;41278060;28;20043;-82
2023/10/01 03:05:53;;;;;;;3.40;2.65;;;;;;;23.29;47.92;100959.97;41279284;28;20051;-82
2023/10/01 03:46:06;;;;;;;3.63;2.70;;;;;;;22.82;47.49;100901.91;41254835;28;20120;-82
2023/10/01 04:06:06;;;;;;;4.03;2.70;;;;;;;23.47;47.31;101019.38;41082356;28;20053;-82
2023/10/01 04:26:13;;;;;;;3.00;2.63;;;;;;;22.73;47.20;100906.09;41081487;28;20504;-82
2023/10/01 04:46:16;;;;;;;4.07;2.45;;;;;;;22.55;47.01;100910.97;41097206;28;20038;-82
2023/10/01 05:06:19;;;;;;;3.58;2.38;;;;;;;22.67;46.90;100941.72;41097821;28;20118;-82
2023/10/01 05:26:20;;;;;;;3.50;2.80;;;;;;;22.36;46.53;100903.53;41088707;28;20051;-81
2023/10/01 05:46:27;;;;;;;4.68;2.28;;;;;;;23.05;46.55;101085.03;41086937;28;20066;-83
2023/10/01 06:06:30;;;;;;;26.10;3.33;;;;;;;20.87;43.91;100947.34;41101254;28;20062;-84
2023/10/01 06:26:37;;;;;;;8.65;2.95;;;;;;;21.42;41.36;101130.63;41133605;28;20043;-84
2023/10/01 06:46:37;;;;;;;6.00;2.38;;;;;;;20.96;42.25;101120.50;41106931;28;20097;-84
2023/10/01 07:06:39;;;;;;;6.15;2.40;;;;;;;20.78;42.41;101146.22;41084968;28;20574;-82
2023/10/01 07:26:40;;;;;;;72.82;8.55;;;;;;;20.45;41.98;101102.63;41085469;28;20130;-80
2023/10/01 07:46:42;;;;;;;9.95;3.45;;;;;;;20.75;42.35;101156.91;41073910;28;20047;-83
2023/10/01 08:06:43;;;;;;;10.40;3.42;;;;;;;20.71;42.89;101164.13;41061087;28;20054;-82
2023/10/01 08:26:58;;;;;;;10.70;3.10;;;;;;;20.27;45.52;101173.84;41029077;28;20110;-82
2023/10/01 08:47:21;;;;;;;133.60;10.35;;;;;;;19.94;45.05;101198.59;41060443;28;20054;-79
2023/10/01 09:07:40;;;;;;;7.20;3.30;;;;;;;20.04;44.20;101156.00;41065759;28;20051;-85
2023/10/01 09:27:57;;;;;;;8.20;3.45;;;;;;;20.54;44.28;101127.53;41100631;28;20049;-81
2023/10/01 09:48:04;;;;;;;18.85;3.55;;;;;;;21.53;47.22;101164.19;41242392;28;20409;-82
2023/10/01 10:08:15;;;;;;;10.35;3.90;;;;;;;21.52;48.13;101172.16;41215271;28;20042;-81
2023/10/01 10:28:29;;;;;;;8.57;3.25;;;;;;;21.84;45.01;101187.66;41184635;28;20097;-81
2023/10/01 10:49:02;;;;;;;21.60;4.43;;;;;;;21.79;43.90;101155.47;41236939;28;20605;-81
2023/10/01 11:09:22;;;;;;;10.48;2.92;;;;;;;21.50;40.87;101122.22;41244568;28;20058;-84
2023/10/01 11:29:22;;;;;;;18.08;4.18;;;;;;;22.49;38.65;101123.38;41247626;28;20094;-84
2023/10/01 11:49:34;;;;;;;10.40;3.63;;;;;;;22.82;37.44;101070.91;41218358;28;20082;-84
2023/10/01 12:09:39;;;;;;;6.50;3.28;;;;;;;23.18;36.48;101040.94;41233529;28;20050;-83
2023/10/01 12:29:43;;;;;;;43.42;4.50;;;;;;;23.71;36.17;101036.91;41215336;28;20046;-84
2023/10/01 12:49:58;;;;;;;14.13;3.92;;;;;;;24.11;35.78;101033.78;41212824;28;20043;-81
2023/10/01 13:09:59;;;;;;;8.85;2.47;;;;;;;22.98;34.95;101017.78;41097553;28;20039;-81
2023/10/01 13:30:18;;;;;;;7.15;2.60;;;;;;;23.22;33.95;101015.13;41100551;28;20039;-82
2023/10/01 14:10:38;;;;;;;220.88;34.88;;;;;;;23.82;36.21;100991.94;41167803;28;20054;-82
2023/10/01 14:30:50;;;;;;;65.00;15.63;;;;;;;22.87;36.28;100971.06;41240741;28;20045;-80
2023/10/01 14:50:56;;;;;;;85.68;15.25;;;;;;;23.17;36.08;100977.66;41242363;28;20061;-80
2023/10/01 15:10:57;;;;;;;116.18;26.30;;;;;;;23.83;35.16;100991.00;41251983;28;20047;-76
2023/10/01 15:31:01;;;;;;;35.60;5.95;;;;;;;22.94;37.37;100979.38;41229534;28;20043;-81
2023/10/01 15:51:02;;;;;;;18.25;3.90;;;;;;;22.91;35.71;101006.00;41231908;28;20667;-79
2023/10/01 16:11:05;;;;;;;111.80;8.35;;;;;;;22.70;36.47;101025.13;41208283;28;20082;-78
2023/10/01 16:31:08;;;;;;;30.67;4.60;;;;;;;22.43;37.29;101022.72;41190939;28;20165;-82
2023/10/01 17:11:17;;;;;;;12.05;3.45;;;;;;;23.02;38.69;101067.63;41175197;28;20043;-76
2023/10/01 17:31:20;;;;;;;51.88;7.72;;;;;;;22.96;41.17;101046.97;41171361;28;20106;-77
2023/10/01 17:51:24;;;;;;;53.42;7.15;;;;;;;23.21;42.02;101073.38;41196957;28;20120;-77
2023/10/01 18:11:28;;;;;;;49.50;7.60;;;;;;;23.24;43.09;101081.03;41176433;28;20403;-77
2023/10/01 18:31:30;;;;;;;51.15;12.07;;;;;;;23.28;44.96;101099.19;41182485;28;20180;-80
2023/10/01 18:51:31;;;;;;;45.05;9.38;;;;;;;23.15;44.99;101103.69;41174536;28;20053;-76
2023/10/01 19:11:32;;;;;;;36.28;8.88;;;;;;;23.16;47.09;101089.53;41161946;28;20039;-73
2023/10/01 19:31:39;;;;;;;12.30;4.22;;;;;;;22.60;42.27;101100.66;41149017;28;20054;-73
2023/10/01 19:51:42;;;;;;;13.80;5.07;;;;;;;23.02;44.69;101103.75;41188143;28;20047;-83
2023/10/01 20:11:47;;;;;;;21.80;5.15;;;;;;;23.13;45.38;101116.16;41196067;28;20035;-84
2023/10/01 20:31:51;;;;;;;16.90;5.75;;;;;;;22.95;46.99;101087.53;41210549;28;20073;-85
2023/10/01 20:51:59;;;;;;;13.10;5.00;;;;;;;23.11;47.47;101115.44;41241156;28;20471;-87
2023/10/01 21:12:06;;;;;;;9.55;4.47;;;;;;;23.02;46.56;101101.97;41247554;28;20046;-86
2023/10/01 21:32:07;;;;;;;10.25;5.07;;;;;;;23.00;47.56;101108.31;41278790;28;20043;-86
2023/10/01 21:52:09;;;;;;;8.68;4.13;;;;;;;22.85;47.04;101090.00;41260336;28;20094;-85
2023/10/01 22:12:14;;;;;;;7.28;4.30;;;;;;;23.05;47.35;101123.84;41235756;28;20126;-81
2023/10/01 22:32:14;;;;;;;9.77;4.18;;;;;;;22.75;47.12;101088.97;41199639;28;20054;-81
2023/10/01 22:52:19;;;;;;;8.02;4.07;;;;;;;22.84;47.31;101105.97;41201656;28;20050;-85
2023/10/01 23:12:24;;;;;;;8.23;4.22;;;;;;;22.99;47.15;101135.69;41213952;28;21902;-84
2023/10/01 23:32:26;;;;;;;7.10;3.95;;;;;;;22.77;47.05;101102.91;41211397;28;20039;-84
2023/10/01 23:52:30;;;;;;;7.90;3.83;;;;;;;22.73;46.93;101112.03;41219855;28;20117;-86
